createdAt,value
2019-03-01T00:02:48.797Z,100476.77
2019-03-01T00:08:09.153Z,100460.17
2019-03-01T00:13:34.164Z,100455.13
2019-03-01T00:18:57.332Z,100462.22
2019-03-01T00:24:15.008Z,100458.92
2019-03-01T00:29:36.012Z,100448.66
2019-03-01T00:34:56.057Z,100439.22
2019-03-01T00:40:14.974Z,100446.95
2019-03-01T00:45:19.217Z,100453.05
2019-03-01T00:50:23.426Z,100456.81
2019-03-01T00:55:27.575Z,100457.39
2019-03-01T01:00:36.146Z,100458.25
2019-03-01T01:05:40.447Z,100455.16
2019-03-01T01:10:44.673Z,100473.69
2019-03-01T01:15:48.892Z,100484.46
2019-03-01T01:20:53.147Z,100469.45
2019-03-01T01:25:57.426Z,100469.45
2019-03-01T01:31:01.702Z,100458.25
2019-03-01T01:36:05.916Z,100445.98
2019-03-01T01:41:10.042Z,100438.38
2019-03-01T01:46:14.052Z,100442.28
2019-03-01T01:51:18.364Z,100433.37
2019-03-01T01:56:22.742Z,100447.69
2019-03-01T02:01:26.848Z,100396.74
2019-03-01T02:06:31.105Z,100463.36
2019-03-01T02:11:35.117Z,100470.42
2019-03-01T02:16:39.401Z,100458.45
2019-03-01T02:21:43.790Z,100448.97
2019-03-01T02:26:48.253Z,100443.23
2019-03-01T02:32:00.704Z,100454.61
2019-03-01T02:37:04.974Z,100481.27
2019-03-01T02:42:09.107Z,100486.80
2019-03-01T02:47:13.401Z,100471.63
2019-03-01T02:52:17.567Z,100478.98
2019-03-01T02:57:21.807Z,100480.38
2019-03-01T03:02:26.082Z,100474.30
2019-03-01T03:07:30.244Z,100469.52
2019-03-01T03:12:34.319Z,100453.35
2019-03-01T03:17:38.567Z,100459.17
2019-03-01T03:22:42.849Z,100460.34
2019-03-01T03:27:47.183Z,100439.52
2019-03-01T03:32:51.410Z,100425.48
2019-03-01T03:37:55.795Z,100420.94
2019-03-01T03:42:59.953Z,100438.31
2019-03-01T03:48:04.299Z,100433.67
2019-03-01T03:53:08.432Z,100430.09
2019-03-01T03:58:12.919Z,100433.22
2019-03-01T04:03:17.032Z,100442.83
2019-03-01T04:08:21.422Z,100443.72
2019-03-01T04:13:25.654Z,100434.08
2019-03-01T04:18:29.821Z,100434.71
2019-03-01T04:23:34.275Z,100425.72
2019-03-01T04:28:38.858Z,100428.35
2019-03-01T04:33:43.087Z,100423.70
2019-03-01T04:38:47.325Z,100419.53
2019-03-01T04:43:51.452Z,100428.14
2019-03-01T04:48:55.676Z,100431.00
2019-03-01T04:53:59.945Z,100433.33
2019-03-01T04:59:04.138Z,100429.97
2019-03-01T05:04:08.262Z,100427.22
2019-03-01T05:09:12.492Z,100426.67
2019-03-01T05:14:16.727Z,100431.30
2019-03-01T05:19:21.022Z,100430.63
2019-03-01T05:24:25.293Z,100428.62
2019-03-01T05:29:29.365Z,100423.15
2019-03-01T05:34:33.543Z,100418.99
2019-03-01T05:39:37.861Z,100415.28
2019-03-01T05:44:41.912Z,100417.30
2019-03-01T05:49:46.037Z,100419.70
2019-03-01T05:54:50.042Z,100420.47
2019-03-01T05:59:54.062Z,100425.14
2019-03-01T06:05:01.223Z,100412.79
2019-03-01T06:10:18.317Z,100407.31
2019-03-01T06:15:32.268Z,100390.40
2019-03-01T06:20:51.061Z,100407.41
2019-03-01T06:26:11.928Z,100414.28
2019-03-01T06:31:44.258Z,100404.31
2019-03-01T06:37:06.757Z,100398.34
2019-03-01T06:42:22.820Z,100408.11
2019-03-01T06:47:42.917Z,100413.97
2019-03-01T06:52:47.402Z,100421.27
2019-03-01T06:57:51.639Z,100423.59
2019-03-01T07:02:55.862Z,100420.20
2019-03-01T07:08:00.152Z,100440.30
2019-03-01T07:13:04.666Z,100436.80
2019-03-01T07:18:09.004Z,100438.44
2019-03-01T07:23:13.252Z,100431.30
2019-03-01T07:28:19.418Z,100434.42
2019-03-01T07:33:23.661Z,100428.34
2019-03-01T07:38:27.993Z,100428.94
2019-03-01T07:43:32.217Z,100419.56
2019-03-01T07:48:38.573Z,100418.48
2019-03-01T07:53:42.612Z,100400.64
2019-03-01T07:58:46.847Z,100402.39
2019-03-01T08:03:53.146Z,100401.61
2019-03-01T08:08:56.852Z,100407.48
2019-03-01T08:14:01.077Z,100399.49
2019-03-01T08:19:07.542Z,100397.41
2019-03-01T08:24:11.930Z,100388.85
2019-03-01T08:29:16.443Z,100381.92
2019-03-01T08:34:20.663Z,100382.02
2019-03-01T08:39:24.895Z,100378.02
2019-03-01T08:44:29.383Z,100386.19
2019-03-01T08:49:33.624Z,100394.02
2019-03-01T08:54:37.998Z,100396.27
2019-03-01T08:59:42.203Z,100384.89
2019-03-01T09:04:50.893Z,100385.55
2019-03-01T09:09:53.764Z,100385.92
2019-03-01T09:14:58.369Z,100384.05
2019-03-01T09:20:06.375Z,100388.67
2019-03-01T09:25:11.384Z,100385.65
2019-03-01T09:30:18.524Z,100373.16
2019-03-01T09:35:22.796Z,100377.48
2019-03-01T09:40:28.846Z,100377.81
2019-03-01T09:45:36.601Z,100380.45
2019-03-01T09:50:39.169Z,100373.44
2019-03-01T09:55:43.403Z,100366.94
2019-03-01T10:00:56.260Z,100362.33
2019-03-01T10:05:57.191Z,100356.53
2019-03-01T10:11:01.470Z,100353.02
2019-03-01T10:16:05.749Z,100351.83
2019-03-01T10:21:09.888Z,100353.34
2019-03-01T10:26:13.939Z,100353.20
2019-03-01T10:31:18.339Z,100358.17
2019-03-01T10:36:22.802Z,100344.70
2019-03-01T10:41:27.101Z,100344.70
2019-03-01T10:46:31.603Z,100337.52
2019-03-01T10:51:35.877Z,100332.75
2019-03-01T10:56:40.308Z,100323.92
2019-03-01T11:01:44.639Z,100331.74
2019-03-01T11:06:49.083Z,100317.06
2019-03-01T11:11:53.303Z,100317.06
2019-03-01T11:16:57.589Z,100294.81
2019-03-01T11:22:01.934Z,100294.81
2019-03-01T11:27:12.735Z,100309.20
2019-03-01T11:32:12.082Z,100307.02
2019-03-01T11:37:16.406Z,100305.38
2019-03-01T11:42:20.747Z,100298.66
2019-03-01T11:47:24.939Z,100292.48
2019-03-01T11:52:29.195Z,100300.39
2019-03-01T11:57:33.423Z,100305.41
2019-03-01T12:02:37.821Z,100300.69
2019-03-01T12:07:42.660Z,100291.25
2019-03-01T12:12:47.039Z,100287.07
2019-03-01T12:17:51.271Z,100287.07
2019-03-01T12:22:55.550Z,100272.69
2019-03-01T12:27:59.944Z,100276.57
2019-03-01T12:33:04.163Z,100290.79
2019-03-01T12:38:08.404Z,100258.95
2019-03-01T12:43:12.524Z,100269.23
2019-03-01T12:48:16.794Z,100269.27
2019-03-01T12:53:21.130Z,100251.53
2019-03-01T12:58:25.320Z,100253.48
2019-03-01T13:03:30.120Z,100250.83
2019-03-01T13:08:34.593Z,100244.83
2019-03-01T13:13:40.259Z,100243.45
2019-03-01T13:18:47.712Z,100238.59
2019-03-01T13:23:53.682Z,100212.68
2019-03-01T13:28:57.868Z,100212.68
2019-03-01T13:34:02.302Z,100199.66
2019-03-01T13:39:10.405Z,100208.95
2019-03-01T13:44:13.964Z,100186.09
2019-03-01T13:49:18.422Z,100180.42
2019-03-01T13:54:23.002Z,100159.70
2019-03-01T13:59:27.521Z,100162.98
2019-03-01T14:04:31.672Z,100152.36
2019-03-01T14:09:37.919Z,100144.34
2019-03-01T14:14:41.991Z,100138.93
2019-03-01T14:19:46.214Z,100115.28
2019-03-01T14:24:50.918Z,100110.17
2019-03-01T14:29:55.297Z,100080.67
2019-03-01T14:34:59.457Z,100079.81
2019-03-01T14:40:04.417Z,100067.17
2019-03-01T14:45:12.072Z,100065.70
2019-03-01T14:50:17.758Z,100052.66
2019-03-01T14:55:25.457Z,100049.12
2019-03-01T15:00:36.117Z,100049.71
2019-03-01T15:05:41.977Z,100034.19
2019-03-01T15:10:46.837Z,100021.52
2019-03-01T15:15:51.138Z,100015.05
2019-03-01T15:20:56.310Z,100003.41
2019-03-01T15:26:01.604Z,99998.41
2019-03-01T15:31:05.832Z,99999.13
2019-03-01T15:36:10.157Z,99994.30
2019-03-01T15:41:14.557Z,99986.36
2019-03-01T15:46:19.117Z,99977.24
2019-03-01T15:51:23.357Z,99968.25
2019-03-01T15:56:27.778Z,99962.02
2019-03-01T16:01:32.077Z,99962.75
2019-03-01T16:06:36.457Z,99959.05
2019-03-01T16:11:40.797Z,99941.52
2019-03-01T16:16:45.723Z,99943.15
2019-03-01T16:21:51.351Z,99931.42
2019-03-01T16:26:55.937Z,99920.70
2019-03-01T16:32:00.577Z,99918.26
2019-03-01T16:37:05.078Z,99923.45
2019-03-01T16:42:09.537Z,99903.35
2019-03-01T16:47:13.758Z,99900.59
2019-03-01T16:52:18.217Z,99894.92
2019-03-01T16:57:22.536Z,99875.20
2019-03-01T17:02:26.818Z,99874.73
2019-03-01T17:07:31.216Z,99856.63
2019-03-01T17:12:37.594Z,99860.42
2019-03-01T17:17:43.700Z,99851.13
2019-03-01T17:22:48.258Z,99838.73
2019-03-01T17:27:52.696Z,99827.65
2019-03-01T17:32:57.279Z,99822.70
2019-03-01T17:38:04.001Z,99819.02
2019-03-01T17:43:07.677Z,99820.34
2019-03-01T17:48:11.909Z,99798.26
2019-03-01T17:53:16.337Z,99787.54
2019-03-01T17:58:20.540Z,99782.73
2019-03-01T18:03:24.853Z,99785.86
2019-03-01T18:08:29.257Z,99764.16
2019-03-01T18:13:33.479Z,99763.59
2019-03-01T18:18:37.817Z,99758.75
2019-03-01T18:23:42.037Z,99750.33
2019-03-01T18:28:46.378Z,99758.18
2019-03-01T18:33:53.642Z,99749.17
2019-03-01T18:38:56.638Z,99740.36
2019-03-01T18:44:01.117Z,99743.02
2019-03-01T18:49:06.257Z,99728.92
2019-03-01T18:54:10.603Z,99711.67
2019-03-01T18:59:15.844Z,99704.94
2019-03-01T19:04:29.423Z,99708.52
2019-03-01T19:09:26.219Z,99701.42
2019-03-01T19:14:30.599Z,99695.94
2019-03-01T19:19:34.919Z,99698.02
2019-03-01T19:24:43.076Z,99673.56
2019-03-01T19:29:45.318Z,99676.79
2019-03-01T19:34:52.761Z,99663.80
2019-03-01T19:39:55.479Z,99660.30
2019-03-01T19:45:04.733Z,99655.27
2019-03-01T19:50:09.205Z,99652.22
2019-03-01T19:55:13.665Z,99620.77
2019-03-01T20:00:19.981Z,99609.70
2019-03-01T20:05:27.908Z,99575.97
2019-03-01T20:10:31.416Z,99580.70
2019-03-01T20:15:36.751Z,99572.55
2019-03-01T20:20:41.080Z,99564.09
2019-03-01T20:25:47.489Z,99552.26
2019-03-01T20:30:52.350Z,99538.41
2019-03-01T20:35:56.593Z,99534.98
2019-03-01T20:41:03.178Z,99528.63
2019-03-01T20:46:07.323Z,99517.05
2019-03-01T20:51:12.401Z,99513.73
2019-03-01T20:56:17.147Z,99513.73
2019-03-01T21:01:21.627Z,99511.44
2019-03-01T21:06:25.922Z,99502.66
2019-03-01T21:11:29.956Z,99490.21
2019-03-01T21:16:34.271Z,99496.77
2019-03-01T21:21:38.601Z,99491.66
2019-03-01T21:26:42.836Z,99424.61
2019-03-01T21:31:47.667Z,99484.86
2019-03-01T21:36:51.810Z,99486.03
2019-03-01T21:41:55.880Z,99495.16
2019-03-01T21:47:01.086Z,99494.44
2019-03-01T21:52:05.895Z,99490.21
2019-03-01T21:57:09.986Z,99491.67
2019-03-01T22:02:17.059Z,99498.71
2019-03-01T22:07:20.722Z,99508.02
2019-03-01T22:12:25.687Z,99492.70
2019-03-01T22:17:29.951Z,99516.84
2019-03-01T22:22:34.266Z,99515.91
2019-03-01T22:27:39.826Z,99517.13
2019-03-01T22:32:45.501Z,99517.52
2019-03-01T22:37:50.034Z,99528.48
2019-03-01T22:42:54.425Z,99515.81
2019-03-01T22:47:58.977Z,99506.75
2019-03-01T22:53:06.467Z,99506.82
2019-03-01T22:58:09.167Z,99510.72
2019-03-01T23:03:15.296Z,99523.41
2019-03-01T23:08:20.035Z,99522.44
2019-03-01T23:13:24.621Z,99527.38
2019-03-01T23:18:28.801Z,99541.22
2019-03-01T23:23:33.346Z,99539.91
2019-03-01T23:28:40.805Z,99541.63
2019-03-01T23:33:44.286Z,99539.34
2019-03-01T23:38:50.123Z,99536.51
2019-03-01T23:43:54.461Z,99537.76
2019-03-01T23:49:05.967Z,99523.08
2019-03-01T23:54:05.640Z,99517.31
2019-03-01T23:59:13.451Z,99528.66
